Time;durP1;ratioP1;P1;durP2;ratioP2;P2;SDS_P1;SDS_P2;PMS_P1;PMS_P2;Temp;Humidity;BMP_temperature;BMP_pressure;BME280_temperature;BME280_humidity;BME280_pressure;Samples;Min_cycle;Max_cycle;Signal;HPM_P1;HPM_P2
2020/12/09 00:02:16;;;;;;;45.60;29.72;;;;;;;-2.59;83.03;99698.73;1718238;82;21198;-71
2020/12/09 00:04:45;;;;;;;47.25;25.95;;;;;;;-2.55;83.01;99696.64;1715035;82;21040;-70
2020/12/09 00:07:12;;;;;;;49.33;27.93;;;;;;;-2.54;83.11;99693.23;1711843;82;21211;-70
2020/12/09 00:09:40;;;;;;;52.38;26.57;;;;;;;-2.53;83.05;99700.04;1706806;82;21236;-69
2020/12/09 00:12:07;;;;;;;52.78;30.45;;;;;;;-2.54;83.12;99698.34;1712547;82;21554;-69
2020/12/09 00:14:35;;;;;;;54.30;30.65;;;;;;;-2.56;83.11;99694.91;1699286;83;21594;-69
2020/12/09 00:17:02;;;;;;;54.77;30.85;;;;;;;-2.57;83.14;99693.22;1706605;83;21038;-68
2020/12/09 00:19:29;;;;;;;56.30;28.70;;;;;;;-2.56;83.16;99691.08;1707256;83;21051;-70
2020/12/09 00:21:57;;;;;;;48.35;22.17;;;;;;;-2.54;83.19;99688.11;1703841;82;21167;-70
2020/12/09 00:24:24;;;;;;;55.43;27.93;;;;;;;-2.54;83.17;99698.34;1707333;83;21613;-71
2020/12/09 00:26:51;;;;;;;58.95;30.12;;;;;;;-2.54;83.22;99696.22;1703029;83;22192;-70
2020/12/09 00:29:18;;;;;;;;;;;;;;;-2.54;83.28;99706.02;1688900;83;21112;-71
2020/12/09 00:31:45;;;;;;;51.15;27.17;;;;;;;-2.53;83.33;99695.36;1718853;82;20299;-73
2020/12/09 00:34:13;;;;;;;53.28;31.10;;;;;;;-2.56;83.37;99696.63;1689332;82;21046;-71
2020/12/09 00:36:40;;;;;;;52.60;30.55;;;;;;;-2.59;83.27;99696.17;1682615;83;21169;-67
2020/12/09 00:39:07;;;;;;;53.25;29.85;;;;;;;-2.57;83.32;99691.94;1673023;83;21644;-68
2020/12/09 00:41:34;;;;;;;54.15;30.40;;;;;;;-2.56;83.28;99694.91;1694202;83;20945;-71
2020/12/09 00:44:01;;;;;;;53.83;29.10;;;;;;;-2.54;83.34;99690.67;1706469;83;21055;-70
2020/12/09 00:46:28;;;;;;;59.05;30.77;;;;;;;-2.53;83.23;99694.92;1695783;83;21022;-70
2020/12/09 00:48:55;;;;;;;59.35;32.40;;;;;;;-2.53;83.25;99692.37;1697959;83;21237;-73
2020/12/09 00:51:25;;;;;;;53.85;28.80;;;;;;;-2.55;83.25;99686.42;1701735;83;21745;-71
2020/12/09 00:53:53;;;;;;;50.98;26.17;;;;;;;-2.56;83.28;99697.47;1707705;83;20980;-68
2020/12/09 00:56:20;;;;;;;;;;;;;;;-2.57;83.42;99698.33;1693112;82;21122;-68
2020/12/09 00:58:47;;;;;;;43.20;22.42;;;;;;;-2.63;83.46;99693.19;1686064;84;20340;-68
2020/12/09 01:01:16;;;;;;;52.70;29.42;;;;;;;-2.65;83.64;99689.76;1697546;83;21203;-69
2020/12/09 01:03:43;;;;;;;51.00;28.27;;;;;;;-2.66;83.55;99689.73;1687675;84;22209;-72
2020/12/09 01:06:12;;;;;;;59.70;29.75;;;;;;;-2.68;83.51;99694.86;1698513;83;21556;-69
2020/12/09 01:08:39;;;;;;;50.35;25.30;;;;;;;-2.66;83.65;99703.40;1694523;84;20981;-69
2020/12/09 01:11:06;;;;;;;52.62;25.97;;;;;;;-2.64;83.64;99695.72;1694362;82;21137;-71
2020/12/09 01:13:35;;;;;;;46.55;26.97;;;;;;;-2.63;83.61;99704.69;1680929;83;21142;-68
2020/12/09 01:16:02;;;;;;;56.00;27.55;;;;;;;-2.65;83.58;99712.77;1704525;83;21422;-69
2020/12/09 01:18:30;;;;;;;54.48;28.20;;;;;;;-2.68;83.59;99714.02;1703676;83;20992;-69
2020/12/09 01:20:57;;;;;;;50.08;28.10;;;;;;;-2.71;83.65;99707.62;1692986;83;21571;-71
2020/12/09 01:23:24;;;;;;;52.27;28.92;;;;;;;-2.68;83.69;99712.75;1708393;83;21032;-69
2020/12/09 01:25:51;;;;;;;55.17;30.32;;;;;;;-2.66;83.73;99705.07;1697722;83;21221;-69
2020/12/09 01:28:18;;;;;;;55.95;29.70;;;;;;;-2.66;83.63;99716.17;1693223;82;21301;-73
2020/12/09 01:30:45;;;;;;;54.00;28.83;;;;;;;-2.65;83.62;99703.81;1681486;83;21918;-70
2020/12/09 01:33:12;;;;;;;54.63;27.95;;;;;;;-2.62;83.62;99710.22;1688640;83;21146;-71
2020/12/09 01:35:40;;;;;;;54.00;28.55;;;;;;;-2.61;83.62;99714.48;1724996;81;21637;-69
2020/12/09 01:38:07;;;;;;;;;;;;;;;-2.60;83.60;99709.81;1720652;82;21562;-70
2020/12/09 01:40:34;;;;;;;53.83;26.25;;;;;;;-2.62;83.70;99710.22;1726918;81;22532;-71
2020/12/09 01:43:01;;;;;;;56.98;29.98;;;;;;;-2.63;83.68;99710.20;1714469;82;21062;-73
2020/12/09 01:45:29;;;;;;;53.35;29.05;;;;;;;-2.63;83.71;99708.53;1718238;81;21560;-69
2020/12/09 01:47:56;;;;;;;54.55;28.95;;;;;;;-2.60;83.69;99712.80;1707404;82;21230;-69
2020/12/09 01:50:25;;;;;;;56.33;27.73;;;;;;;-2.59;83.70;99706.41;1715460;81;21566;-70
2020/12/09 01:52:54;;;;;;;56.28;30.48;;;;;;;-2.60;83.71;99704.70;1696555;83;21216;-68
2020/12/09 01:55:21;;;;;;;52.13;30.08;;;;;;;-2.61;83.69;99704.25;1713657;82;21250;-68
2020/12/09 01:57:48;;;;;;;59.00;28.80;;;;;;;-2.61;83.73;99700.42;1688583;83;21638;-68
2020/12/09 02:00:17;;;;;;;62.98;31.15;;;;;;;-2.59;83.76;99709.39;1729346;81;21617;-68
2020/12/09 02:02:44;;;;;;;54.95;29.90;;;;;;;-2.59;83.70;99713.22;1698885;84;21057;-69
2020/12/09 02:05:11;;;;;;;57.03;30.43;;;;;;;-2.60;83.79;99709.81;1724602;82;22576;-72
2020/12/09 02:07:38;;;;;;;59.98;28.98;;;;;;;-2.62;83.74;99707.67;1725257;82;21169;-70
2020/12/09 02:10:07;;;;;;;60.28;30.37;;;;;;;-2.64;83.93;99706.80;1720326;82;21608;-71
2020/12/09 02:12:40;;;;;;;49.80;26.50;;;;;;;-2.67;83.92;99704.66;1725523;81;21143;-70
2020/12/09 02:15:08;;;;;;;60.50;30.75;;;;;;;-2.71;84.11;99710.17;1723283;82;21180;-68
2020/12/09 02:17:35;;;;;;;57.60;29.80;;;;;;;-2.73;84.33;99709.30;1710510;83;21763;-68
2020/12/09 02:20:04;;;;;;;51.58;27.75;;;;;;;-2.79;84.14;99715.23;1689591;83;21676;-68
2020/12/09 02:22:31;;;;;;;47.13;23.42;;;;;;;-2.83;84.23;99717.75;1715448;81;21111;-70
2020/12/09 02:24:58;;;;;;;43.50;21.75;;;;;;;-2.88;84.42;99707.52;1708262;82;21192;-72
2020/12/09 02:27:25;;;;;;;49.13;28.65;;;;;;;-2.93;84.58;99716.41;1712385;83;21038;-71
2020/12/09 02:29:52;;;;;;;51.25;29.07;;;;;;;-2.95;84.54;99709.16;1699007;83;21639;-68
2020/12/09 02:32:19;;;;;;;49.25;24.37;;;;;;;-2.95;84.64;99704.04;1718575;82;21192;-68
2020/12/09 02:34:46;;;;;;;55.60;28.50;;;;;;;-2.97;84.59;99707.03;1697741;82;21567;-69
2020/12/09 02:37:13;;;;;;;47.95;22.77;;;;;;;-2.97;84.61;99710.86;1673342;84;21097;-71
2020/12/09 02:39:40;;;;;;;43.65;22.45;;;;;;;-2.98;84.70;99718.08;1672906;85;21171;-71
2020/12/09 02:42:07;;;;;;;50.30;25.45;;;;;;;-2.99;84.96;99720.20;1680795;83;22156;-69
2020/12/09 02:44:34;;;;;;;60.67;30.15;;;;;;;-3.00;84.83;99710.81;1681677;83;21242;-69
2020/12/09 02:47:02;;;;;;;56.48;30.65;;;;;;;-3.00;84.77;99704.85;1680351;84;20997;-69
2020/12/09 02:49:31;;;;;;;59.75;30.85;;;;;;;-3.00;84.84;99703.15;1677581;84;26793;-69
2020/12/09 02:51:58;;;;;;;57.53;30.25;;;;;;;-3.00;84.76;99708.25;1680566;84;21153;-68
2020/12/09 02:54:25;;;;;;;53.50;24.87;;;;;;;-3.00;84.88;99699.75;1691005;84;22416;-70
2020/12/09 02:56:52;;;;;;;54.80;28.85;;;;;;;-2.99;85.00;99706.16;1689632;84;21063;-67
2020/12/09 02:59:19;;;;;;;43.23;21.80;;;;;;;-2.99;84.82;99702.33;1683415;84;27463;-69
2020/12/09 03:01:46;;;;;;;57.43;28.60;;;;;;;-2.97;84.97;99705.75;1685780;84;21207;-73
2020/12/09 03:04:13;;;;;;;38.80;15.00;;;;;;;-2.97;84.94;99709.59;1683346;84;21207;-69
2020/12/09 03:06:42;;;;;;;58.90;29.30;;;;;;;-2.98;85.12;99710.84;1678744;84;21281;-69
2020/12/09 03:09:09;;;;;;;44.90;23.25;;;;;;;-2.99;84.93;99709.98;1668198;84;21036;-70
2020/12/09 03:11:36;;;;;;;42.17;24.85;;;;;;;-2.98;85.12;99707.85;1677911;84;21170;-69
2020/12/09 03:14:03;;;;;;;34.67;16.37;;;;;;;-2.98;85.09;99706.58;1672388;84;21237;-69
2020/12/09 03:16:30;;;;;;;50.38;25.15;;;;;;;-2.98;85.27;99710.41;1684911;84;21257;-70
2020/12/09 03:18:59;;;;;;;58.63;29.65;;;;;;;-3.01;85.35;99706.56;1674667;84;22577;-71
2020/12/09 03:21:26;;;;;;;47.80;26.30;;;;;;;-3.00;85.15;99703.15;1682083;84;21240;-69
2020/12/09 03:23:53;;;;;;;60.95;28.92;;;;;;;-2.97;85.17;99709.59;1683293;83;21247;-69
2020/12/09 03:26:20;;;;;;;47.65;26.30;;;;;;;-2.92;85.09;99707.89;1688693;83;21151;-71
2020/12/09 03:28:47;;;;;;;52.40;27.75;;;;;;;-2.88;85.03;99709.22;1690043;84;21139;-71
2020/12/09 03:31:14;;;;;;;56.37;29.15;;;;;;;-2.84;85.02;99705.83;1688408;83;21671;-68
2020/12/09 03:33:42;;;;;;;56.70;29.82;;;;;;;-2.80;84.92;99715.20;1685668;82;21151;-71
2020/12/09 03:36:08;;;;;;;49.15;27.62;;;;;;;-2.78;84.91;99718.64;1721553;81;21502;-70
2020/12/09 03:38:36;;;;;;;55.65;28.42;;;;;;;-2.82;84.97;99696.48;1720543;82;21178;-69
2020/12/09 03:41:03;;;;;;;43.83;19.57;;;;;;;-2.74;84.94;99712.72;1684312;83;21167;-71
2020/12/09 03:43:30;;;;;;;;;;;;;;;-2.76;85.27;99716.95;1723923;82;21631;-70
2020/12/09 03:45:57;;;;;;;54.67;29.98;;;;;;;-2.78;85.08;99727.58;1723374;82;21268;-70
2020/12/09 03:48:24;;;;;;;58.40;27.15;;;;;;;-2.77;85.17;99728.03;1729987;82;21481;-69
2020/12/09 03:50:51;;;;;;;53.98;29.18;;;;;;;-2.76;85.11;99727.17;1728532;82;21618;-71
2020/12/09 03:53:20;;;;;;;51.48;27.20;;;;;;;-2.72;85.11;99726.34;1718139;82;21193;-68
2020/12/09 03:55:48;;;;;;;47.45;24.57;;;;;;;-2.70;85.12;99727.21;1717378;82;21181;-70
2020/12/09 03:58:17;;;;;;;44.93;25.48;;;;;;;-2.69;85.21;99719.97;1721669;82;21048;-68
2020/12/09 04:00:44;;;;;;;45.58;25.37;;;;;;;-2.68;85.18;99722.12;1712582;82;21191;-72
2020/12/09 04:03:11;;;;;;;55.52;27.35;;;;;;;-2.67;85.20;99722.11;1726761;81;21055;-70
2020/12/09 04:05:38;;;;;;;48.70;23.30;;;;;;;-2.65;85.26;99715.32;1692169;84;21202;-68
2020/12/09 04:08:05;;;;;;;41.90;20.43;;;;;;;-2.64;85.36;99709.34;1727184;82;22423;-71
2020/12/09 04:10:32;;;;;;;50.58;26.33;;;;;;;-2.62;85.44;99713.20;1698224;84;21649;-71
2020/12/09 04:12:59;;;;;;;44.35;25.32;;;;;;;-2.62;85.32;99715.34;1716174;82;21149;-71
2020/12/09 04:15:27;;;;;;;48.63;24.10;;;;;;;-2.61;85.30;99720.87;1722355;81;21158;-69
2020/12/09 04:17:54;;;;;;;51.37;24.47;;;;;;;-2.57;85.33;99718.78;1722593;82;21193;-69
2020/12/09 04:20:21;;;;;;;53.08;26.30;;;;;;;-2.55;85.36;99719.65;1713304;82;21201;-69
2020/12/09 04:22:48;;;;;;;47.93;24.47;;;;;;;-2.54;85.27;99716.23;1725657;81;21184;-68
2020/12/09 04:25:15;;;;;;;39.25;23.30;;;;;;;-2.49;85.38;99714.99;1728794;82;21063;-68
2020/12/09 04:27:42;;;;;;;47.17;23.60;;;;;;;-2.47;85.27;99723.08;1728982;82;21081;-71
2020/12/09 04:30:09;;;;;;;39.08;22.87;;;;;;;-2.43;85.27;99725.67;1729071;82;21139;-70
2020/12/09 04:32:36;;;;;;;46.68;24.70;;;;;;;-2.40;85.28;99723.98;1725256;82;21675;-70
2020/12/09 04:35:04;;;;;;;43.92;25.23;;;;;;;-2.38;85.23;99729.97;1717021;82;21205;-72
2020/12/09 04:37:31;;;;;;;43.00;21.70;;;;;;;-2.34;85.27;99733.39;1694722;84;21081;-68
2020/12/09 04:39:58;;;;;;;50.15;24.92;;;;;;;-2.36;85.22;99722.28;1717957;83;21096;-69
2020/12/09 04:42:26;;;;;;;45.63;23.07;;;;;;;-2.34;85.29;99715.48;1711338;83;21151;-69
2020/12/09 04:44:54;;;;;;;45.48;24.20;;;;;;;-2.32;85.29;99724.03;1692793;84;21188;-70
2020/12/09 04:47:41;;;;;;;44.83;25.17;;;;;;;-2.31;85.38;99721.89;1716073;83;21202;-68
2020/12/09 04:50:13;;;;;;;44.43;23.77;;;;;;;-2.32;85.34;99724.03;1693137;84;21194;-69
2020/12/09 04:52:56;;;;;;;48.23;25.60;;;;;;;-2.31;85.35;99718.05;1715642;83;21020;-72
2020/12/09 04:55:26;;;;;;;51.55;26.07;;;;;;;-2.30;85.31;99719.75;1682990;84;21616;-69
2020/12/09 04:58:07;;;;;;;46.20;24.45;;;;;;;-2.29;85.30;99716.37;1709735;83;21598;-69
2020/12/09 05:00:34;;;;;;;51.08;25.62;;;;;;;-2.30;85.41;99712.08;1695075;82;21072;-70
2020/12/09 05:03:18;;;;;;;45.83;23.30;;;;;;;-2.32;85.35;99718.91;1715191;82;21565;-70
2020/12/09 05:05:47;;;;;;;45.48;23.42;;;;;;;-2.33;85.65;99712.07;1690359;84;22618;-72
2020/12/09 05:08:22;;;;;;;52.85;26.77;;;;;;;-2.36;85.71;99717.17;1698573;83;21081;-69
2020/12/09 05:10:52;;;;;;;37.30;19.77;;;;;;;-2.38;85.65;99718.86;1682660;84;21231;-70
2020/12/09 05:13:23;;;;;;;54.35;28.07;;;;;;;-2.37;85.90;99724.42;1676295;84;21093;-68
2020/12/09 05:15:56;;;;;;;57.05;29.40;;;;;;;-2.38;85.69;99726.53;1702763;83;21046;-68
2020/12/09 05:18:38;;;;;;;60.38;28.62;;;;;;;-2.38;85.66;99718.86;1693223;83;21029;-70
2020/12/09 05:21:20;;;;;;;50.35;29.23;;;;;;;-2.35;85.70;99716.31;1718365;83;21870;-70
2020/12/09 05:23:59;;;;;;;58.17;28.55;;;;;;;-2.32;85.61;99722.75;1687606;84;21726;-67
2020/12/09 05:26:33;;;;;;;52.30;28.30;;;;;;;-2.32;85.71;99718.91;1695811;84;21104;-69
2020/12/09 05:29:18;;;;;;;58.48;29.82;;;;;;;-2.34;85.80;99715.48;1719077;83;21000;-69
2020/12/09 05:31:48;;;;;;;55.50;26.20;;;;;;;-2.35;85.92;99729.09;1682425;82;21207;-71
2020/12/09 05:34:33;;;;;;;50.98;25.65;;;;;;;-2.38;86.00;99720.14;1714732;83;21661;-70
2020/12/09 05:37:05;;;;;;;52.93;27.22;;;;;;;-2.39;86.12;99726.11;1696524;83;21400;-70
2020/12/09 05:39:33;;;;;;;44.05;23.12;;;;;;;-2.41;86.14;99718.84;1715050;83;21067;-68
2020/12/09 05:42:18;;;;;;;53.65;28.00;;;;;;;-2.44;86.29;99713.72;1697995;84;21171;-69
2020/12/09 05:44:49;;;;;;;53.85;25.65;;;;;;;-2.47;86.21;99709.02;1714190;83;21615;-68
2020/12/09 05:47:18;;;;;;;56.15;29.32;;;;;;;-2.50;86.31;99712.84;1671945;83;21164;-70
2020/12/09 05:49:45;;;;;;;57.58;32.25;;;;;;;-2.50;86.12;99725.62;1691595;84;21169;-70
2020/12/09 05:52:17;;;;;;;53.90;28.57;;;;;;;-2.53;86.08;99720.49;1688164;84;21144;-70
2020/12/09 05:54:47;;;;;;;56.92;31.57;;;;;;;-2.55;86.49;99708.15;1694412;84;21159;-68
2020/12/09 05:57:18;;;;;;;56.70;29.45;;;;;;;-2.60;86.33;99715.36;1704720;83;20991;-70
2020/12/09 05:59:48;;;;;;;59.90;32.85;;;;;;;-2.62;86.43;99712.78;1708829;83;21123;-70
2020/12/09 06:02:24;;;;;;;52.95;27.52;;;;;;;-2.64;86.38;99727.24;1713870;82;21226;-67
2020/12/09 06:04:59;;;;;;;53.83;29.32;;;;;;;-2.66;86.69;99726.41;1708425;83;21608;-68
2020/12/09 06:07:49;;;;;;;56.68;30.55;;;;;;;-2.69;86.56;99731.47;1692084;84;21558;-70
2020/12/09 06:10:20;;;;;;;52.23;28.83;;;;;;;-2.69;86.51;99734.02;1697740;83;21186;-70
2020/12/09 06:13:01;;;;;;;51.35;27.58;;;;;;;-2.71;86.52;99734.45;1679808;85;21209;-70
2020/12/09 06:15:32;;;;;;;60.35;29.15;;;;;;;-2.73;86.81;99739.97;1679076;84;21574;-71
2020/12/09 06:18:09;;;;;;;43.75;24.15;;;;;;;-2.76;86.56;99743.79;1678657;85;21256;-68
2020/12/09 06:20:40;;;;;;;51.53;29.67;;;;;;;-2.78;86.82;99731.41;1675692;84;21207;-70
2020/12/09 06:23:15;;;;;;;52.38;26.23;;;;;;;-2.80;86.91;99744.59;1674839;84;21171;-68
2020/12/09 06:25:47;;;;;;;61.10;33.40;;;;;;;-2.83;86.96;99744.18;1675592;84;21178;-71
2020/12/09 06:28:18;;;;;;;46.92;25.43;;;;;;;-2.83;86.67;99753.52;1677855;84;21888;-70
2020/12/09 06:30:50;;;;;;;53.48;30.37;;;;;;;-2.83;86.77;99748.41;1671538;84;21606;-71
2020/12/09 06:33:35;;;;;;;48.17;20.72;;;;;;;-2.84;86.74;99762.04;1699042;83;21648;-68
2020/12/09 06:36:30;;;;;;;59.20;32.80;;;;;;;-2.87;86.96;99751.80;1691144;83;21229;-69
2020/12/09 06:42:04;;;;;;;46.48;26.37;;;;;;;-2.85;87.14;99760.34;1838782;77;22530;-66
2020/12/09 06:44:32;;;;;;;52.53;30.25;;;;;;;-2.89;87.04;99770.09;1808151;77;21078;-69
2020/12/09 06:47:02;;;;;;;57.05;30.95;;;;;;;-2.90;87.00;99769.66;1809323;77;21194;-69
2020/12/09 06:49:34;;;;;;;61.37;32.70;;;;;;;-2.88;86.94;99770.55;1805845;77;21589;-68
2020/12/09 06:52:27;;;;;;;39.50;18.50;;;;;;;-2.85;86.87;99774.39;1807132;77;21064;-68
2020/12/09 06:54:55;;;;;;;59.08;31.30;;;;;;;-2.83;87.16;99773.96;1798793;77;21064;-68
2020/12/09 06:57:38;;;;;;;60.75;31.07;;;;;;;-2.86;86.96;99763.72;1810764;77;21578;-69
2020/12/09 07:00:15;;;;;;;56.08;30.52;;;;;;;-2.87;86.96;99767.13;1806232;77;21616;-69
2020/12/09 07:05:32;;;;;;;45.10;25.52;;;;;;;-2.85;87.06;99762.47;1660502;84;20280;-68
2020/12/09 07:08:02;;;;;;;48.95;27.05;;;;;;;-2.85;87.13;99773.12;1661457;83;21240;-70
2020/12/09 07:10:31;;;;;;;55.17;29.77;;;;;;;-2.86;87.03;99771.39;1653296;84;21236;-68
2020/12/09 07:13:09;;;;;;;52.30;30.57;;;;;;;-2.87;87.15;99769.69;1678120;84;21196;-69
2020/12/09 07:15:41;;;;;;;52.65;28.85;;;;;;;-2.85;87.03;99775.67;1661501;84;21199;-70
2020/12/09 07:18:09;;;;;;;58.63;32.78;;;;;;;-2.81;87.06;99779.95;1630400;85;21228;-68
2020/12/09 07:20:36;;;;;;;;;;;;;;;-2.81;86.88;99783.35;1644481;85;21196;-69
2020/12/09 07:23:04;;;;;;;44.38;24.80;;;;;;;-2.80;87.02;99785.09;1642010;85;20299;-68
2020/12/09 07:25:35;;;;;;;52.08;29.60;;;;;;;-2.79;87.12;99783.38;1645145;85;22224;-70
2020/12/09 07:28:03;;;;;;;60.83;32.03;;;;;;;-2.79;87.03;99788.49;1648723;86;21263;-69
2020/12/09 07:30:34;;;;;;;51.00;27.82;;;;;;;-2.79;87.09;99784.66;1639215;85;21127;-68
2020/12/09 07:33:02;;;;;;;63.42;31.62;;;;;;;-2.76;87.20;99775.73;1639921;85;21172;-69
2020/12/09 07:35:33;;;;;;;50.85;27.93;;;;;;;-2.77;87.03;99786.81;1646031;86;21282;-70
2020/12/09 07:38:00;;;;;;;54.00;27.17;;;;;;;-2.76;87.14;99791.06;1642157;85;21464;-71
2020/12/09 07:40:35;;;;;;;58.08;31.82;;;;;;;-2.75;87.26;99782.55;1646110;85;21066;-63
2020/12/09 07:43:07;;;;;;;64.15;31.33;;;;;;;-2.75;87.13;99787.66;1639135;85;21026;-67
2020/12/09 07:45:40;;;;;;;43.42;25.62;;;;;;;-2.73;87.09;99787.25;1616092;86;21200;-67
2020/12/09 07:48:12;;;;;;;37.55;21.33;;;;;;;-2.71;87.17;99786.85;1636191;85;21235;-68
2020/12/09 07:50:49;;;;;;;55.78;30.97;;;;;;;-2.72;87.29;99776.17;1645437;85;21235;-67
2020/12/09 07:53:19;;;;;;;59.08;32.03;;;;;;;-2.72;87.13;99780.01;1629776;85;21188;-70
2020/12/09 07:55:46;;;;;;;47.15;23.12;;;;;;;-2.70;87.17;99779.61;1640931;85;22273;-71
2020/12/09 07:58:17;;;;;;;50.78;30.02;;;;;;;-2.70;87.28;99777.05;1632631;85;21212;-70
2020/12/09 08:00:49;;;;;;;53.65;28.73;;;;;;;-2.71;87.17;99775.34;1634654;85;21634;-69
2020/12/09 14:19:39;;;;;;;42.33;23.65;;;;;;;-3.63;85.29;99703.91;1371729;102;21309;-67
2020/12/09 14:22:13;;;;;;;50.25;28.73;;;;;;;-3.59;85.34;99709.89;1792456;77;22020;-68
2020/12/09 14:24:40;;;;;;;45.17;26.85;;;;;;;-3.63;85.31;99705.61;1770692;80;20984;-67
2020/12/09 14:27:09;;;;;;;48.55;28.73;;;;;;;-3.62;85.37;99713.70;1772810;80;21154;-66
2020/12/09 14:29:36;;;;;;;47.73;28.12;;;;;;;-3.63;85.31;99714.55;1768017;80;21083;-68
2020/12/09 14:32:04;;;;;;;50.25;29.07;;;;;;;-3.62;85.37;99712.42;1753743;78;25228;-68
2020/12/09 14:34:31;;;;;;;52.38;29.80;;;;;;;-3.60;85.38;99717.13;1748071;80;21051;-66
2020/12/09 14:36:58;;;;;;;54.67;31.40;;;;;;;-3.60;85.42;99714.14;1747507;81;21062;-67
2020/12/09 14:39:25;;;;;;;50.12;30.37;;;;;;;-3.57;85.38;99717.15;1742404;80;21203;-66
2020/12/09 14:41:53;;;;;;;53.17;30.90;;;;;;;-3.56;85.43;99721.41;1747859;80;22064;-67
2020/12/09 14:44:23;;;;;;;55.45;30.20;;;;;;;-3.55;85.44;99720.58;1722263;80;23344;-65
2020/12/09 14:46:50;;;;;;;52.80;31.48;;;;;;;-3.54;85.37;99724.83;1716292;82;21076;-66
2020/12/09 14:49:18;;;;;;;51.88;30.15;;;;;;;-3.52;85.39;99725.71;1704047;81;21083;-65
2020/12/09 14:51:47;;;;;;;53.45;31.80;;;;;;;-3.51;85.36;99722.31;1716777;81;21158;-67
2020/12/09 14:54:15;;;;;;;41.88;27.42;;;;;;;-3.50;85.33;99713.83;1720055;83;21204;-67
2020/12/09 14:56:48;;;;;;;52.78;29.25;;;;;;;-3.51;85.38;99708.27;1709526;83;21183;-65
2020/12/09 14:59:15;;;;;;;35.50;18.05;;;;;;;-3.51;85.37;99701.89;1711282;82;21047;-71
2020/12/09 15:01:42;;;;;;;42.88;23.07;;;;;;;-3.53;85.42;99699.73;1705910;83;21182;-68
2020/12/09 15:04:10;;;;;;;35.50;19.50;;;;;;;-3.57;85.44;99709.49;1710189;83;21220;-67
2020/12/09 15:06:36;;;;;;;;;;;;;;;-3.60;85.53;99704.36;1717471;81;21034;-69
2020/12/09 15:09:04;;;;;;;43.13;25.72;;;;;;;-3.61;85.63;99705.22;1714564;82;20178;-68
2020/12/09 15:11:32;;;;;;;;;;;;;;;-3.62;85.61;99704.33;1714578;81;21241;-67
2020/12/09 15:14:00;;;;;;;51.48;30.08;;;;;;;-3.61;85.70;99702.66;1719467;81;20272;-67
2020/12/09 15:16:27;;;;;;;50.83;29.18;;;;;;;-3.62;85.66;99703.06;1717601;83;22558;-69
2020/12/09 15:18:54;;;;;;;52.65;29.75;;;;;;;-3.60;85.67;99710.31;1714505;81;21588;-67
2020/12/09 15:21:25;;;;;;;52.83;28.60;;;;;;;-3.57;85.58;99706.94;1715687;81;21064;-66
2020/12/09 15:23:55;;;;;;;55.40;30.95;;;;;;;-3.56;85.63;99707.80;1712224;82;21080;-68
2020/12/09 15:26:23;;;;;;;61.60;31.07;;;;;;;-3.54;85.64;99709.52;1693332;82;21676;-67
2020/12/09 15:28:50;;;;;;;38.45;22.55;;;;;;;-3.52;85.61;99701.89;1714515;82;22179;-70
2020/12/09 15:31:19;;;;;;;50.52;29.23;;;;;;;-3.51;85.57;99713.38;1719653;82;29152;-70
2020/12/09 15:33:46;;;;;;;49.88;30.05;;;;;;;-3.54;85.58;99724.83;1724707;82;21058;-69
2020/12/09 15:36:20;;;;;;;50.12;28.35;;;;;;;-3.54;85.56;99721.43;1718231;82;21217;-72
2020/12/09 15:38:55;;;;;;;43.55;28.25;;;;;;;-3.53;85.64;99716.33;1841600;77;22825;-69
2020/12/09 15:41:23;;;;;;;53.00;31.12;;;;;;;-3.57;85.70;99717.15;1803393;78;21020;-67
2020/12/09 15:43:53;;;;;;;61.00;33.33;;;;;;;-3.56;85.64;99718.85;1803833;78;21197;-68
2020/12/09 15:46:23;;;;;;;38.83;22.75;;;;;;;-3.54;85.68;99721.43;1794972;78;21523;-67
2020/12/09 15:48:50;;;;;;;49.25;26.80;;;;;;;-3.56;85.65;99710.34;1803516;78;21024;-68
2020/12/09 15:51:17;;;;;;;55.45;30.12;;;;;;;-3.58;85.67;99712.90;1746643;81;21180;-68
2020/12/09 15:53:45;;;;;;;54.70;31.93;;;;;;;-3.59;85.64;99717.55;1744131;81;21072;-66
2020/12/09 15:56:13;;;;;;;46.68;25.40;;;;;;;-3.59;85.68;99723.92;1741887;81;21607;-70
2020/12/09 15:58:40;;;;;;;51.95;28.50;;;;;;;-3.61;85.71;99720.53;1746207;81;21579;-68
2020/12/09 16:01:07;;;;;;;44.83;25.48;;;;;;;-3.61;85.75;99716.27;1741512;81;21656;-66
2020/12/09 16:03:34;;;;;;;56.83;32.70;;;;;;;-3.63;85.75;99713.27;1737485;81;21673;-66
2020/12/09 16:06:03;;;;;;;55.63;31.02;;;;;;;-3.64;85.70;99714.09;1739352;81;21162;-65
2020/12/09 16:08:31;;;;;;;53.42;31.42;;;;;;;-3.63;85.72;99719.65;1745102;81;22172;-66
2020/12/09 16:10:59;;;;;;;45.70;24.95;;;;;;;-3.61;85.71;99719.25;1723410;81;21143;-65
2020/12/09 16:13:29;;;;;;;37.67;19.45;;;;;;;-3.58;85.77;99718.00;1744753;81;21077;-66
2020/12/09 16:16:00;;;;;;;45.70;24.95;;;;;;;-3.59;85.73;99723.92;1747253;81;21065;-67
2020/12/09 16:18:26;;;;;;;54.35;28.83;;;;;;;-3.62;85.72;99729.00;1753485;81;21161;-66
2020/12/09 16:20:53;;;;;;;50.55;29.02;;;;;;;-3.74;85.71;99700.83;1752587;81;22170;-65
2020/12/09 16:23:20;;;;;;;32.75;20.72;;;;;;;-3.74;85.71;99700.83;1747985;81;21024;-67
2020/12/09 16:25:47;;;;;;;;;;;;;;;-3.69;85.76;99722.14;1748435;81;21617;-71
2020/12/09 16:28:14;;;;;;;44.58;23.38;;;;;;;-3.73;85.81;99728.04;1743962;81;20560;-70
2020/12/09 16:30:44;;;;;;;44.85;27.58;;;;;;;-3.77;85.87;99723.77;1743920;81;21155;-67
2020/12/09 16:33:13;;;;;;;29.45;16.85;;;;;;;-3.76;85.89;99728.02;1755773;81;22276;-66
2020/12/09 16:35:40;;;;;;;40.90;23.80;;;;;;;-3.77;85.82;99714.83;1756662;81;21045;-69
2020/12/09 16:38:08;;;;;;;42.43;24.25;;;;;;;-3.79;85.87;99720.33;1741070;81;21069;-71
2020/12/09 16:40:35;;;;;;;42.70;24.60;;;;;;;-3.80;85.94;99718.63;1739083;81;21109;-69
2020/12/09 16:43:03;;;;;;;51.00;31.95;;;;;;;-3.80;85.95;99723.73;1733218;81;21155;-67
2020/12/09 16:45:30;;;;;;;;;;;;;;;-3.84;85.91;99728.80;1732214;81;21598;-68
2020/12/09 16:47:57;;;;;;;54.95;32.30;;;;;;;-3.84;86.00;99719.87;1743244;81;20537;-70
2020/12/09 16:50:24;;;;;;;42.48;24.30;;;;;;;-3.84;85.87;99726.25;1740298;81;22335;-67
2020/12/09 16:52:54;;;;;;;59.48;35.03;;;;;;;-3.86;85.94;99716.44;1731453;82;21598;-67
2020/12/09 16:55:22;;;;;;;51.55;25.82;;;;;;;-3.91;85.77;99711.70;1746612;82;21021;-66
2020/12/09 16:57:53;;;;;;;51.68;27.07;;;;;;;-3.93;85.86;99723.58;1742040;82;21657;-66
2020/12/09 17:00:23;;;;;;;38.98;22.05;;;;;;;-3.97;85.91;99732.05;1740779;82;21072;-65
2020/12/09 17:02:55;;;;;;;58.55;33.50;;;;;;;-4.04;86.00;99720.05;1733642;82;21174;-67
2020/12/09 17:05:30;;;;;;;43.35;24.55;;;;;;;-4.06;86.16;99709.00;1743677;81;21601;-69
2020/12/09 17:07:58;;;;;;;50.35;27.40;;;;;;;-4.06;86.13;99715.38;1738501;82;21597;-71
2020/12/09 17:10:31;;;;;;;58.30;32.53;;;;;;;-4.09;86.15;99708.94;1737971;82;21199;-68
2020/12/09 17:12:59;;;;;;;45.75;23.60;;;;;;;-4.10;86.11;99713.19;1729708;81;21583;-68
2020/12/09 17:15:32;;;;;;;37.35;24.15;;;;;;;-4.10;86.15;99709.78;1739701;81;21587;-68
2020/12/09 17:18:13;;;;;;;41.15;25.15;;;;;;;-4.13;86.18;99699.55;1733453;81;21017;-70
2020/12/09 17:20:42;;;;;;;47.15;25.65;;;;;;;-4.18;86.19;99699.91;1731165;81;21009;-71
2020/12/09 17:23:15;;;;;;;45.05;24.90;;;;;;;-4.21;86.38;99701.16;1739061;81;21213;-70
2020/12/09 17:25:43;;;;;;;47.30;28.02;;;;;;;-4.23;86.35;99706.64;1691755;82;21122;-69
2020/12/09 17:28:11;;;;;;;41.42;25.23;;;;;;;-4.23;86.31;99710.47;1741518;81;21057;-70
2020/12/09 17:30:38;;;;;;;42.85;24.67;;;;;;;-4.25;86.34;99709.61;1741892;81;21231;-71
2020/12/09 17:33:05;;;;;;;47.75;29.75;;;;;;;-4.27;86.40;99704.48;1743536;81;21049;-71
2020/12/09 17:35:32;;;;;;;53.05;30.40;;;;;;;-4.25;86.39;99704.52;1743434;81;21671;-68
2020/12/09 17:37:59;;;;;;;49.75;28.50;;;;;;;-4.22;86.32;99710.92;1737474;81;21113;-72
2020/12/09 17:40:26;;;;;;;35.60;21.35;;;;;;;-4.21;86.20;99706.25;1747591;81;20973;-69
2020/12/09 17:42:53;;;;;;;49.10;25.45;;;;;;;-4.27;86.24;99700.23;1742325;81;21182;-67
2020/12/09 17:45:21;;;;;;;41.00;21.82;;;;;;;-4.33;86.31;99697.62;1750620;81;21530;-67
2020/12/09 17:47:48;;;;;;;36.42;22.98;;;;;;;-4.40;86.34;99709.83;1746635;81;21216;-72
2020/12/09 17:50:15;;;;;;;52.75;30.68;;;;;;;-4.45;86.46;99710.22;1754590;81;21094;-70
2020/12/09 17:52:42;;;;;;;53.83;31.73;;;;;;;-4.51;86.39;99710.11;1742320;81;24539;-70